Time;durP1;ratioP1;P1;durP2;ratioP2;P2;SDS_P1;SDS_P2;PMS_P1;PMS_P2;Temp;Humidity;BMP_temperature;BMP_pressure;BME280_temperature;BME280_humidity;BME280_pressure;Samples;Min_cycle;Max_cycle;Signal;HPM_P1;HPM_P2
2022/01/15 00:00:20;;;;;;;134.05;43.55;;;;;;;3.30;100.00;103224.66;5095029;28;20093;-65
2022/01/15 00:02:45;;;;;;;125.07;43.83;;;;;;;3.23;100.00;103219.97;5094723;28;20111;-67
2022/01/15 00:05:11;;;;;;;122.93;42.95;;;;;;;3.25;100.00;103222.66;5094738;28;20067;-64
2022/01/15 00:07:38;;;;;;;147.13;42.50;;;;;;;3.23;100.00;103206.16;5094840;28;20116;-66
2022/01/15 00:10:05;;;;;;;123.25;42.03;;;;;;;3.22;100.00;103210.44;5094985;28;20028;-68
2022/01/15 00:12:38;;;;;;;135.85;40.95;;;;;;;3.26;100.00;103221.84;5094639;28;20443;-67
2022/01/15 00:15:05;;;;;;;124.20;40.20;;;;;;;3.22;100.00;103219.91;5094158;28;20051;-66
2022/01/15 00:17:46;;;;;;;116.38;39.53;;;;;;;3.17;100.00;103206.69;5094465;28;20085;-67
2022/01/15 00:20:16;;;;;;;106.50;38.25;;;;;;;3.21;100.00;103215.53;5094667;28;20160;-67
2022/01/15 00:22:41;;;;;;;111.22;37.90;;;;;;;3.11;100.00;103202.09;5094619;28;20063;-66
2022/01/15 00:25:07;;;;;;;117.30;39.72;;;;;;;3.13;100.00;103204.75;5094725;28;20109;-65
2022/01/15 00:27:32;;;;;;;120.13;39.17;;;;;;;3.12;100.00;103203.84;5094620;28;20024;-65
2022/01/15 00:29:57;;;;;;;114.30;38.35;;;;;;;3.05;100.00;103195.69;5094650;28;20359;-64
2022/01/15 00:32:22;;;;;;;118.63;37.95;;;;;;;3.08;100.00;103201.94;5094218;28;20114;-65
2022/01/15 00:34:48;;;;;;;131.88;39.58;;;;;;;2.99;100.00;103193.66;5078059;28;20028;-68
2022/01/15 00:37:13;;;;;;;129.35;40.47;;;;;;;3.07;100.00;103202.72;5098519;28;20344;-67
2022/01/15 00:39:38;;;;;;;146.82;40.20;;;;;;;3.06;100.00;103205.22;5098563;28;20020;-66
2022/01/15 00:42:05;;;;;;;132.60;38.53;;;;;;;3.03;100.00;103192.13;5098422;28;20035;-67
2022/01/15 00:44:30;;;;;;;156.85;39.38;;;;;;;2.90;100.00;103179.34;5098243;28;20040;-65
2022/01/15 00:46:56;;;;;;;116.70;37.15;;;;;;;2.98;100.00;103191.88;5097982;28;20038;-65
2022/01/15 00:49:21;;;;;;;138.60;36.55;;;;;;;2.93;100.00;103180.41;5098013;28;20028;-66
2022/01/15 00:51:46;;;;;;;109.70;34.97;;;;;;;2.94;100.00;103182.19;5098141;28;20441;-68
2022/01/15 00:54:12;;;;;;;108.07;34.13;;;;;;;3.00;100.00;103181.59;5098190;28;20036;-65
2022/01/15 00:56:37;;;;;;;119.10;34.75;;;;;;;2.92;100.00;103173.44;5098135;28;20032;-66
2022/01/15 00:59:03;;;;;;;129.90;36.85;;;;;;;2.92;100.00;103176.03;5097874;28;20039;-65
2022/01/15 01:01:28;;;;;;;114.07;35.47;;;;;;;2.91;100.00;103170.78;5097857;28;20114;-65
2022/01/15 01:03:53;;;;;;;114.78;35.53;;;;;;;2.91;100.00;103158.72;5097934;28;20028;-69
2022/01/15 01:06:19;;;;;;;124.22;36.60;;;;;;;2.86;100.00;103164.44;5097452;28;20028;-68
2022/01/15 01:08:44;;;;;;;122.68;36.58;;;;;;;2.86;100.00;103169.63;5097718;28;20028;-66
2022/01/15 01:11:13;;;;;;;124.10;35.42;;;;;;;2.84;100.00;103161.78;5097738;28;20075;-66
2022/01/15 01:20:03;;;;;;;113.00;35.70;;;;;;;2.88;100.00;103160.25;5097398;28;20063;-66
2022/01/15 01:24:20;;;;;;;113.82;35.42;;;;;;;2.81;100.00;103146.09;5097405;28;20088;-68
2022/01/15 01:26:53;;;;;;;112.72;35.50;;;;;;;2.86;100.00;103149.81;5097548;28;20039;-67
2022/01/15 01:31:59;;;;;;;111.28;34.10;;;;;;;2.84;100.00;103146.25;5097368;28;20442;-66
2022/01/15 01:34:27;;;;;;;111.68;35.53;;;;;;;2.84;100.00;103147.97;5097432;28;20028;-67
2022/01/15 01:39:43;;;;;;;114.82;34.60;;;;;;;2.78;100.00;103141.63;5097129;28;20393;-65
2022/01/15 01:44:59;;;;;;;117.38;34.45;;;;;;;2.83;100.00;103149.66;5097210;28;20032;-65
2022/01/15 01:47:36;;;;;;;123.78;33.72;;;;;;;2.78;100.00;103145.91;5095884;28;20127;-65
2022/01/15 01:50:01;;;;;;;114.18;34.83;;;;;;;2.76;100.00;103132.94;5097173;28;20089;-65
2022/01/15 01:52:28;;;;;;;119.32;34.50;;;;;;;2.73;100.00;103124.13;5097065;28;20427;-65
2022/01/15 01:54:53;;;;;;;138.40;36.13;;;;;;;2.74;100.00;103139.72;5097365;28;20046;-65
2022/01/15 01:57:18;;;;;;;136.50;35.60;;;;;;;2.74;100.00;103133.66;5096825;28;20106;-65
2022/01/15 01:59:44;;;;;;;120.00;36.10;;;;;;;2.76;100.00;103129.47;5096654;28;20028;-67
2022/01/15 02:02:09;;;;;;;122.15;35.05;;;;;;;2.69;100.00;103128.22;5096748;28;20024;-69
2022/01/15 02:04:34;;;;;;;135.13;36.15;;;;;;;2.69;100.00;103127.31;5096789;28;20359;-67
2022/01/15 02:07:00;;;;;;;134.25;34.58;;;;;;;2.68;100.00;103128.13;5097038;28;20053;-67
2022/01/15 02:09:25;;;;;;;117.82;34.95;;;;;;;2.70;100.00;103121.34;5096689;28;20344;-66
2022/01/15 02:11:50;;;;;;;120.40;34.67;;;;;;;2.71;100.00;103113.69;5096521;28;20028;-65
2022/01/15 02:14:29;;;;;;;115.50;35.22;;;;;;;2.79;100.00;103127.91;5096503;28;20409;-67
2022/01/15 02:16:55;;;;;;;125.43;33.83;;;;;;;2.75;100.00;103120.81;5096459;28;20040;-65
2022/01/15 02:19:21;;;;;;;118.10;34.38;;;;;;;2.79;100.00;103119.25;5096627;28;20050;-65
2022/01/15 02:24:15;;;;;;;100.95;32.58;;;;;;;2.71;100.00;103126.59;5096589;28;20040;-66
2022/01/15 02:26:40;;;;;;;99.40;30.85;;;;;;;2.60;100.00;103129.41;5096292;28;20032;-65
2022/01/15 02:29:08;;;;;;;97.95;29.45;;;;;;;2.56;100.00;103124.88;5096707;28;20447;-66
2022/01/15 02:31:35;;;;;;;95.97;29.25;;;;;;;2.48;100.00;103103.75;5096349;28;20042;-64
2022/01/15 02:34:02;;;;;;;90.60;28.38;;;;;;;2.51;100.00;103111.69;5096223;28;20039;-64
2022/01/15 02:36:30;;;;;;;87.20;28.20;;;;;;;2.56;100.00;103106.78;5096089;28;20416;-66
2022/01/15 02:38:56;;;;;;;84.20;28.30;;;;;;;2.50;100.00;103101.25;5096255;28;20036;-66
2022/01/15 02:41:31;;;;;;;100.82;28.67;;;;;;;2.51;100.00;103093.59;5095595;28;20038;-67
2022/01/15 02:43:59;;;;;;;85.32;28.25;;;;;;;2.50;100.00;103094.41;5096124;28;20035;-66
2022/01/15 02:48:55;;;;;;;83.10;27.65;;;;;;;2.48;100.00;103071.84;5095963;28;20032;-65
2022/01/15 02:51:26;;;;;;;85.75;26.65;;;;;;;2.47;100.00;103070.06;5095962;28;20065;-66
2022/01/15 02:53:55;;;;;;;86.30;27.15;;;;;;;2.44;100.00;103052.72;5095914;28;20067;-66
2022/01/15 02:56:42;;;;;;;77.72;26.30;;;;;;;2.49;100.00;103052.97;5096193;28;20059;-67
2022/01/15 02:59:14;;;;;;;88.60;27.02;;;;;;;2.49;100.00;103061.59;5095459;28;20406;-66
2022/01/15 03:01:39;;;;;;;;;;;;;;;2.63;100.00;103071.00;5096074;28;20481;-67
2022/01/15 03:04:04;;;;;;;76.70;24.43;;;;;;;2.42;100.00;103059.50;5095816;28;19912;-68
2022/01/15 03:06:30;;;;;;;75.55;24.60;;;;;;;2.43;100.00;103056.97;5095524;28;20039;-66
2022/01/15 03:08:55;;;;;;;77.95;24.80;;;;;;;2.33;100.00;103044.38;5095650;28;20028;-66
2022/01/15 03:11:21;;;;;;;70.70;23.92;;;;;;;2.36;100.00;103047.13;5095415;28;20060;-67
2022/01/15 03:13:47;;;;;;;69.10;23.20;;;;;;;2.36;100.00;103043.66;5095746;28;20098;-67
2022/01/15 03:16:16;;;;;;;66.95;23.20;;;;;;;2.38;100.00;103054.97;5095624;28;20063;-66
2022/01/15 03:18:42;;;;;;;64.70;22.98;;;;;;;2.31;100.00;103039.91;5095640;28;20035;-68
2022/01/15 03:21:08;;;;;;;69.63;24.13;;;;;;;2.29;100.00;103047.59;5095530;28;20389;-65
2022/01/15 03:23:33;;;;;;;72.78;24.02;;;;;;;2.28;100.00;103047.50;5095390;28;20032;-66
2022/01/15 03:25:58;;;;;;;70.72;24.17;;;;;;;2.21;100.00;103041.13;5095201;28;20332;-64
2022/01/15 03:28:24;;;;;;;66.20;23.70;;;;;;;2.26;100.00;103038.78;5095473;28;20036;-65
2022/01/15 03:30:49;;;;;;;68.55;22.73;;;;;;;2.25;100.00;103039.59;5095300;28;20031;-64
2022/01/15 03:33:14;;;;;;;68.55;23.90;;;;;;;2.25;100.00;103040.47;5095329;28;20043;-64
2022/01/15 03:35:40;;;;;;;77.32;24.42;;;;;;;2.21;100.00;103029.91;5095284;28;20035;-65
2022/01/15 03:38:06;;;;;;;73.25;24.15;;;;;;;2.19;100.00;103037.56;5095050;28;20035;-64
2022/01/15 03:40:33;;;;;;;72.32;24.40;;;;;;;2.23;100.00;103042.09;5095259;28;20032;-64
2022/01/15 03:42:59;;;;;;;73.75;25.40;;;;;;;2.25;100.00;103037.03;5095077;28;20041;-64
2022/01/15 03:45:24;;;;;;;72.25;25.17;;;;;;;2.28;100.00;103032.00;5095219;28;20134;-65
2022/01/15 03:47:50;;;;;;;68.35;24.02;;;;;;;2.30;100.00;103031.28;5094971;28;20119;-65
2022/01/15 03:50:17;;;;;;;70.28;23.75;;;;;;;2.32;100.00;103028.78;5094889;28;20443;-65
2022/01/15 03:52:42;;;;;;;75.50;23.20;;;;;;;2.26;100.00;103026.75;5094939;28;20152;-65
2022/01/15 03:55:09;;;;;;;76.35;23.45;;;;;;;2.26;100.00;103031.03;5095120;28;20035;-64
2022/01/15 03:57:34;;;;;;;77.90;23.17;;;;;;;2.17;100.00;103015.91;5095070;28;20116;-65
2022/01/15 04:00:00;;;;;;;71.53;24.02;;;;;;;2.18;100.00;103003.91;5095002;28;20452;-67
2022/01/15 04:02:26;;;;;;;63.70;23.27;;;;;;;2.16;100.00;103008.09;5094870;28;20116;-66
2022/01/15 04:04:51;;;;;;;71.22;23.75;;;;;;;2.20;100.00;103012.63;5094863;28;20466;-64
2022/01/15 04:07:16;;;;;;;72.18;22.40;;;;;;;2.18;100.00;103014.22;5095281;28;20020;-65
2022/01/15 04:09:42;;;;;;;75.22;24.50;;;;;;;2.09;100.00;102996.50;5096314;28;20046;-66
2022/01/15 04:12:07;;;;;;;77.00;25.38;;;;;;;2.21;100.00;103010.13;5099086;28;20038;-64
2022/01/15 04:14:32;;;;;;;79.88;25.83;;;;;;;2.25;100.00;103009.47;5098875;28;20060;-65
2022/01/15 04:16:58;;;;;;;80.85;26.75;;;;;;;2.24;100.00;102999.09;5098985;28;20464;-67
2022/01/15 04:19:24;;;;;;;80.10;27.33;;;;;;;2.31;100.00;102994.31;5098840;28;20032;-65
2022/01/15 04:21:49;;;;;;;79.88;25.20;;;;;;;2.29;100.00;102993.34;5098685;28;20035;-64
2022/01/15 04:24:15;;;;;;;84.50;26.65;;;;;;;2.21;100.00;102989.47;5098698;28;20028;-64
2022/01/15 04:26:40;;;;;;;74.90;26.02;;;;;;;2.25;100.00;102996.56;5098669;28;20089;-64
2022/01/15 04:29:06;;;;;;;77.78;27.17;;;;;;;2.18;100.00;102978.06;5098897;28;20028;-65
2022/01/15 04:31:49;;;;;;;76.57;25.98;;;;;;;2.25;100.00;102980.19;5099062;28;20390;-64
2022/01/15 04:34:16;;;;;;;73.65;24.63;;;;;;;2.32;100.00;102987.44;5098686;28;20060;-65
2022/01/15 04:36:43;;;;;;;74.95;25.33;;;;;;;2.23;100.00;102979.22;5098300;28;20043;-65
2022/01/15 04:39:09;;;;;;;73.22;24.63;;;;;;;2.27;100.00;102982.03;5098378;28;20028;-65
2022/01/15 04:41:34;;;;;;;76.45;25.67;;;;;;;2.27;100.00;102975.97;5098484;28;20024;-65
2022/01/15 04:43:59;;;;;;;76.15;24.85;;;;;;;2.21;100.00;102971.38;5098401;28;20032;-65
2022/01/15 04:46:25;;;;;;;81.13;26.15;;;;;;;2.19;100.00;102965.25;5098277;28;20035;-64
2022/01/15 04:48:50;;;;;;;76.32;25.27;;;;;;;2.24;100.00;102962.91;5098009;28;20331;-64
2022/01/15 04:51:15;;;;;;;68.63;23.85;;;;;;;2.24;100.00;102966.41;5098126;28;20024;-65
2022/01/15 04:53:40;;;;;;;77.82;25.52;;;;;;;2.26;100.00;102975.09;5098274;28;20050;-64
2022/01/15 04:56:06;;;;;;;69.50;24.90;;;;;;;2.27;100.00;102957.88;5098210;28;20081;-64
2022/01/15 04:58:31;;;;;;;70.03;24.75;;;;;;;2.19;100.00;102951.44;5098289;28;20042;-64
2022/01/15 05:00:56;;;;;;;72.85;25.42;;;;;;;2.21;100.00;102950.72;5097879;28;20044;-65
2022/01/15 05:03:21;;;;;;;77.60;25.77;;;;;;;2.26;100.00;102953.53;5098211;28;20035;-63
2022/01/15 05:05:47;;;;;;;74.72;26.67;;;;;;;2.23;100.00;102949.13;5097861;28;20109;-64
2022/01/15 05:08:13;;;;;;;73.00;25.45;;;;;;;2.27;100.00;102950.16;5097984;28;20089;-65
2022/01/15 05:10:45;;;;;;;72.22;25.85;;;;;;;2.25;100.00;102960.38;5097940;28;20036;-66
2022/01/15 05:13:10;;;;;;;;;;;;;;;2.30;100.00;102952.91;5098192;28;20063;-66
2022/01/15 05:15:35;;;;;;;71.60;26.17;;;;;;;2.20;100.00;102940.31;5097487;28;20302;-66
2022/01/15 05:18:00;;;;;;;73.97;25.65;;;;;;;2.13;100.00;102931.31;5097648;28;20766;-64
2022/01/15 05:20:26;;;;;;;69.07;26.48;;;;;;;2.24;100.00;102948.31;5098098;28;20458;-64
2022/01/15 05:22:51;;;;;;;76.53;28.10;;;;;;;2.22;100.00;102947.34;5097666;28;20042;-64
2022/01/15 05:25:18;;;;;;;64.95;25.38;;;;;;;2.15;100.00;102940.03;5097645;28;20043;-64
2022/01/15 05:27:45;;;;;;;68.60;25.75;;;;;;;2.10;100.00;102942.38;5097645;28;20039;-65
2022/01/15 05:30:12;;;;;;;70.03;26.10;;;;;;;2.13;100.00;102938.19;5097336;28;20339;-64
2022/01/15 05:32:37;;;;;;;75.22;26.77;;;;;;;2.14;100.00;102932.22;5097247;28;20030;-65
2022/01/15 05:35:03;;;;;;;67.82;26.65;;;;;;;2.17;100.00;102930.69;5097434;28;20364;-64
2022/01/15 05:37:28;;;;;;;79.38;27.92;;;;;;;2.15;100.00;102919.38;5097493;28;20028;-64
2022/01/15 05:39:53;;;;;;;77.65;28.63;;;;;;;2.08;100.00;102894.03;5097500;28;20032;-66
2022/01/15 05:42:19;;;;;;;74.32;27.63;;;;;;;2.22;100.00;102911.19;5097528;28;20105;-65
2022/01/15 05:44:44;;;;;;;71.03;27.25;;;;;;;2.19;100.00;102912.69;5097152;28;20031;-66
2022/01/15 05:47:10;;;;;;;76.53;27.88;;;;;;;2.15;100.00;102909.06;5097360;28;20062;-64
2022/01/15 05:49:37;;;;;;;72.78;28.02;;;;;;;2.14;100.00;102908.97;5097198;28;20032;-66
2022/01/15 05:52:03;;;;;;;75.00;28.05;;;;;;;2.14;100.00;102906.38;5097059;28;20173;-65
2022/01/15 05:54:29;;;;;;;83.32;28.58;;;;;;;2.06;100.00;102885.34;5097191;28;20086;-67
2022/01/15 05:56:54;;;;;;;85.45;29.30;;;;;;;2.11;100.00;102891.59;5096949;28;20135;-66
2022/01/15 05:59:19;;;;;;;76.57;28.50;;;;;;;2.09;100.00;102875.13;5096818;28;20032;-66
2022/01/15 06:01:45;;;;;;;76.60;28.77;;;;;;;2.23;100.00;102889.72;5096770;28;20046;-65
2022/01/15 06:04:10;;;;;;;74.85;27.63;;;;;;;2.22;100.00;102885.34;5096644;28;20032;-65
2022/01/15 06:06:35;;;;;;;76.70;29.02;;;;;;;2.25;100.00;102885.47;5096498;28;20111;-65
2022/01/15 06:09:02;;;;;;;79.28;28.75;;;;;;;2.26;100.00;102891.53;5096414;28;20160;-65
2022/01/15 06:11:27;;;;;;;78.85;28.20;;;;;;;2.24;100.00;102886.31;5096667;28;20024;-64
2022/01/15 06:13:53;;;;;;;72.97;27.13;;;;;;;2.24;100.00;102881.16;5096754;28;20040;-63
2022/01/15 06:16:18;;;;;;;92.03;26.95;;;;;;;2.23;100.00;102893.97;5096577;28;20431;-63
2022/01/15 06:18:43;;;;;;;91.03;28.30;;;;;;;2.20;100.00;102892.13;5096477;28;20116;-62
2022/01/15 06:21:09;;;;;;;77.10;26.67;;;;;;;2.20;100.00;102883.47;5096870;28;20059;-63
2022/01/15 06:23:34;;;;;;;81.80;25.73;;;;;;;2.18;100.00;102883.41;5096609;28;20367;-63
2022/01/15 06:26:00;;;;;;;99.55;26.73;;;;;;;2.20;100.00;102878.31;5096604;28;20441;-63
2022/01/15 06:28:25;;;;;;;97.88;26.52;;;;;;;2.14;100.00;102875.41;5108181;27;20042;-64
2022/01/15 06:30:51;;;;;;;98.05;26.73;;;;;;;2.15;100.00;102875.47;5136352;27;20035;-63
2022/01/15 06:33:17;;;;;;;91.97;25.40;;;;;;;2.13;100.00;102864.19;5136421;27;20030;-62
2022/01/15 06:35:42;;;;;;;74.80;25.02;;;;;;;2.14;100.00;102878.88;5137138;27;20362;-63
2022/01/15 06:38:08;;;;;;;83.97;26.25;;;;;;;2.09;100.00;102872.56;5137261;27;20027;-63
2022/01/15 06:40:33;;;;;;;94.15;27.67;;;;;;;2.13;100.00;102866.75;5136961;27;20055;-62
2022/01/15 06:43:00;;;;;;;88.93;27.25;;;;;;;2.10;100.00;102874.34;5137104;27;20031;-61
2022/01/15 06:45:27;;;;;;;90.68;27.15;;;;;;;2.17;100.00;102876.47;5136516;27;20035;-63
2022/01/15 06:47:52;;;;;;;84.90;26.23;;;;;;;2.13;100.00;102865.88;5136701;27;20123;-63
2022/01/15 06:50:18;;;;;;;139.10;28.00;;;;;;;2.12;100.00;102870.16;5136969;27;20038;-60
2022/01/15 06:52:43;;;;;;;92.28;28.23;;;;;;;2.13;100.00;102866.75;5136927;27;20041;-63
2022/01/15 06:55:09;;;;;;;93.60;26.83;;;;;;;2.18;100.00;102865.31;5136802;27;20454;-62
2022/01/15 06:57:35;;;;;;;124.80;27.70;;;;;;;2.18;100.00;102874.75;5136638;27;20031;-62
2022/01/15 07:00:02;;;;;;;92.82;26.48;;;;;;;2.16;100.00;102864.34;5124122;27;20431;-63
2022/01/15 07:02:27;;;;;;;95.05;26.95;;;;;;;2.19;100.00;102869.69;5095409;28;20401;-62
2022/01/15 07:04:52;;;;;;;122.88;27.70;;;;;;;2.14;100.00;102872.81;5095128;28;20036;-63
2022/01/15 07:07:18;;;;;;;80.22;27.58;;;;;;;2.14;100.00;102868.53;5095718;28;20023;-63
2022/01/15 07:09:43;;;;;;;138.93;29.02;;;;;;;2.14;100.00;102871.13;5095650;28;20328;-64
2022/01/15 07:12:09;;;;;;;98.05;27.05;;;;;;;2.11;100.00;102870.94;5094875;28;20088;-64
2022/01/15 07:14:34;;;;;;;92.82;28.70;;;;;;;2.11;100.00;102873.53;5105240;28;20064;-63
2022/01/15 07:16:59;;;;;;;87.18;27.05;;;;;;;2.06;100.00;102875.00;5102638;27;20028;-61
2022/01/15 07:19:25;;;;;;;103.32;25.95;;;;;;;2.17;100.00;102863.53;5115713;28;20446;-65
2022/01/15 07:21:50;;;;;;;71.38;24.90;;;;;;;2.13;100.00;102866.75;5115612;28;20027;-65
2022/01/15 07:24:16;;;;;;;89.97;23.83;;;;;;;2.15;100.00;102864.25;5115792;28;20122;-63
2022/01/15 07:26:42;;;;;;;88.53;23.80;;;;;;;2.07;100.00;102874.19;5115702;28;20038;-64
2022/01/15 07:29:14;;;;;;;86.50;24.70;;;;;;;2.10;100.00;102869.16;5115355;28;20035;-64
2022/01/15 07:31:39;;;;;;;113.85;22.65;;;;;;;2.03;100.00;102865.41;5115321;28;20193;-64
2022/01/15 07:34:05;;;;;;;83.32;21.25;;;;;;;2.04;100.00;102871.44;5115705;28;20084;-64
2022/01/15 07:36:30;;;;;;;64.88;20.83;;;;;;;2.06;100.00;102875.00;5115536;28;20115;-62
2022/01/15 07:38:56;;;;;;;99.32;21.67;;;;;;;2.03;100.00;102861.94;5115593;28;20357;-62
2022/01/15 07:41:22;;;;;;;66.88;20.63;;;;;;;2.03;100.00;102862.81;5115547;28;20028;-64
2022/01/15 07:43:47;;;;;;;81.38;21.30;;;;;;;1.93;100.00;102869.97;5114889;28;20477;-62
2022/01/15 07:46:12;;;;;;;80.32;20.90;;;;;;;1.91;100.00;102866.41;5115394;28;20119;-62
2022/01/15 07:48:38;;;;;;;118.78;21.42;;;;;;;1.88;100.00;102880.06;5115419;28;20042;-61
2022/01/15 07:51:03;;;;;;;82.20;20.08;;;;;;;1.80;100.00;102872.69;5115547;28;20034;-64
2022/01/15 07:53:29;;;;;;;131.75;22.48;;;;;;;1.78;100.00;102877.75;5115341;28;20112;-63
2022/01/15 07:55:54;;;;;;;91.30;18.85;;;;;;;1.98;100.00;102874.56;5115527;28;20370;-64
2022/01/15 07:58:19;;;;;;;115.70;19.05;;;;;;;1.75;100.00;102875.00;5115268;28;20031;-64
2022/01/15 08:00:44;;;;;;;162.52;19.88;;;;;;;1.72;100.00;102878.34;5114872;28;20339;-63
2022/01/15 08:03:10;;;;;;;108.72;19.60;;;;;;;1.75;100.00;102888.81;5115101;28;20032;-64
2022/01/15 08:05:35;;;;;;;67.30;18.55;;;;;;;1.67;100.00;102878.88;5115055;28;20028;-66
2022/01/15 08:08:00;;;;;;;59.85;16.75;;;;;;;1.77;100.00;102877.69;5115248;28;20137;-65
2022/01/15 08:10:26;;;;;;;71.57;17.88;;;;;;;1.67;100.00;102869.44;5115277;28;20374;-65
2022/01/15 08:12:51;;;;;;;91.05;17.33;;;;;;;1.57;100.00;102881.72;5114928;28;20115;-66
2022/01/15 08:15:19;;;;;;;50.53;19.05;;;;;;;1.55;100.00;102873.06;5115551;28;20051;-66
2022/01/15 08:17:45;;;;;;;58.63;18.25;;;;;;;1.56;100.00;102877.41;5102710;28;20039;-65
2022/01/15 08:20:11;;;;;;;57.17;18.10;;;;;;;1.51;100.00;102866.81;5094811;28;20425;-67
2022/01/15 08:22:36;;;;;;;73.30;19.15;;;;;;;1.56;100.00;102870.53;5100489;28;20389;-66
2022/01/15 08:25:01;;;;;;;68.22;19.48;;;;;;;1.56;100.00;102874.81;5104681;28;20019;-66
2022/01/15 08:27:27;;;;;;;49.80;20.42;;;;;;;1.57;100.00;102861.09;5094867;28;20028;-65
2022/01/15 08:29:52;;;;;;;57.90;19.70;;;;;;;1.59;100.00;102846.59;5094484;28;20016;-65
2022/01/15 08:32:17;;;;;;;59.05;20.80;;;;;;;1.69;100.00;102860.09;5094491;28;20351;-67
2022/01/15 08:34:44;;;;;;;61.83;20.50;;;;;;;1.53;100.00;102842.00;5094650;28;20396;-66
2022/01/15 08:37:09;;;;;;;91.88;22.80;;;;;;;1.60;100.00;102851.84;5094675;28;20059;-65
2022/01/15 08:39:35;;;;;;;66.50;22.20;;;;;;;1.57;100.00;102849.06;5094671;28;20068;-64
2022/01/15 08:42:02;;;;;;;61.63;21.00;;;;;;;1.64;100.00;102858.94;5094446;28;20038;-65
2022/01/15 08:44:27;;;;;;;69.20;21.52;;;;;;;1.60;100.00;102846.69;5094552;28;20085;-68
2022/01/15 08:46:52;;;;;;;87.00;22.48;;;;;;;1.58;100.00;102837.97;5094458;28;20324;-66
2022/01/15 08:49:19;;;;;;;66.20;21.40;;;;;;;1.66;100.00;102866.78;5096975;28;20034;-66
2022/01/15 08:51:44;;;;;;;58.88;21.75;;;;;;;1.54;100.00;102854.09;5093931;28;20028;-66
2022/01/15 08:54:10;;;;;;;64.78;22.25;;;;;;;1.57;100.00;102850.78;5094457;28;20096;-68
2022/01/15 08:56:35;;;;;;;83.55;22.55;;;;;;;1.52;100.00;102847.97;5096702;28;20343;-66
2022/01/15 08:59:05;;;;;;;54.17;21.10;;;;;;;1.54;100.00;102846.34;5108583;28;20039;-66
2022/01/15 09:01:31;;;;;;;71.63;23.20;;;;;;;1.50;100.00;102852.16;5103659;28;20036;-66
2022/01/15 09:03:57;;;;;;;54.13;22.50;;;;;;;1.55;100.00;102863.63;5098420;28;20036;-66
2022/01/15 09:06:23;;;;;;;61.85;22.25;;;;;;;1.55;100.00;102862.72;5098156;28;20043;-65
2022/01/15 09:08:48;;;;;;;58.15;23.58;;;;;;;1.48;100.00;102852.84;5097904;28;20028;-68
2022/01/15 09:11:13;;;;;;;61.78;24.33;;;;;;;1.60;100.00;102863.84;5097747;28;20031;-65
2022/01/15 09:13:40;;;;;;;62.67;24.25;;;;;;;1.60;100.00;102856.09;5097380;28;20059;-66
2022/01/15 09:16:06;;;;;;;65.50;23.65;;;;;;;1.56;100.00;102843.88;5097639;28;20035;-65
2022/01/15 09:18:31;;;;;;;67.32;23.33;;;;;;;1.59;100.00;102846.59;5097745;28;20028;-65
2022/01/15 09:20:56;;;;;;;64.28;23.40;;;;;;;1.51;100.00;102834.97;5097512;28;20335;-66
2022/01/15 09:23:21;;;;;;;61.05;23.63;;;;;;;1.53;100.00;102838.53;5097762;28;20415;-66
2022/01/15 09:25:49;;;;;;;60.95;23.80;;;;;;;1.53;100.00;102823.94;5097544;28;20031;-66
2022/01/15 09:30:57;;;;;;;59.30;24.88;;;;;;;1.70;100.00;102832.59;5097067;28;20043;-66
2022/01/15 09:33:23;;;;;;;68.88;26.67;;;;;;;1.55;100.00;102829.19;5097457;28;20020;-66
2022/01/15 09:35:48;;;;;;;66.35;24.33;;;;;;;1.67;100.00;102825.56;5097660;28;20119;-66
2022/01/15 09:38:16;;;;;;;64.65;24.92;;;;;;;1.64;100.00;102825.41;5097063;28;20346;-64
2022/01/15 09:40:43;;;;;;;64.13;26.73;;;;;;;1.69;100.00;102830.81;5097039;28;20389;-65
2022/01/15 09:43:09;;;;;;;64.03;25.27;;;;;;;1.65;100.00;102821.13;5096998;28;20032;-65
2022/01/15 09:45:35;;;;;;;64.95;25.98;;;;;;;1.65;100.00;102819.44;5097080;28;20089;-67
2022/01/15 09:48:02;;;;;;;84.07;26.90;;;;;;;1.65;100.00;102822.03;5096883;28;20031;-67
2022/01/15 09:50:31;;;;;;;73.05;25.75;;;;;;;1.62;100.00;102820.97;5097330;28;20343;-66
2022/01/15 09:52:58;;;;;;;71.63;26.13;;;;;;;1.63;100.00;102827.91;5096788;28;20454;-65
2022/01/15 09:55:24;;;;;;;64.43;25.52;;;;;;;1.69;100.00;102836.88;5096761;28;20032;-65
2022/01/15 09:57:52;;;;;;;65.47;26.05;;;;;;;1.74;100.00;102834.53;5100331;28;20027;-65
2022/01/15 10:00:19;;;;;;;65.70;26.08;;;;;;;1.80;100.00;102827.13;5088843;28;20351;-66
2022/01/15 10:02:46;;;;;;;68.82;25.83;;;;;;;1.82;100.00;102833.25;5105458;28;20027;-66
2022/01/15 10:05:14;;;;;;;73.13;27.25;;;;;;;1.82;100.00;102827.19;5105417;28;20028;-66
2022/01/15 10:07:54;;;;;;;70.63;27.30;;;;;;;1.85;100.00;102828.25;5104884;28;20362;-66
2022/01/15 10:10:22;;;;;;;69.78;27.75;;;;;;;1.84;100.00;102831.66;5101779;28;20411;-66
2022/01/15 10:12:48;;;;;;;80.90;28.48;;;;;;;1.86;100.00;102819.72;5116210;28;20430;-66
2022/01/15 10:15:16;;;;;;;71.50;28.60;;;;;;;1.83;100.00;102828.97;5116880;28;20059;-66
2022/01/15 10:17:42;;;;;;;78.53;28.90;;;;;;;1.87;100.00;102838.69;5116986;28;20438;-65
2022/01/15 10:20:11;;;;;;;82.88;31.35;;;;;;;1.92;100.00;102832.03;5116838;28;20031;-65
2022/01/15 10:22:45;;;;;;;89.82;34.05;;;;;;;1.95;100.00;102834.78;5116867;28;20032;-64
2022/01/15 10:25:21;;;;;;;82.15;28.70;;;;;;;1.94;100.00;102823.56;5116449;28;20437;-65
2022/01/15 10:27:50;;;;;;;71.90;28.10;;;;;;;1.94;100.00;102817.53;5116931;28;20434;-65
2022/01/15 10:30:19;;;;;;;79.93;29.75;;;;;;;1.95;100.00;102817.59;5116601;28;20107;-67
2022/01/15 10:33:01;;;;;;;87.25;35.17;;;;;;;1.91;100.00;102809.59;5116731;28;20360;-66
2022/01/15 10:35:32;;;;;;;82.05;33.38;;;;;;;1.96;100.00;102821.97;5116774;28;20102;-68
2022/01/15 10:38:10;;;;;;;75.63;28.55;;;;;;;2.04;100.00;102815.53;5116595;28;20331;-64
2022/01/15 10:40:50;;;;;;;76.57;30.70;;;;;;;2.10;100.00;102809.78;5116582;28;20123;-64
2022/01/15 10:43:18;;;;;;;85.35;28.80;;;;;;;2.18;100.00;102810.19;5116518;28;20515;-66
2022/01/15 10:45:52;;;;;;;79.38;30.15;;;;;;;2.05;100.00;102788.91;5116474;28;20031;-67
2022/01/15 10:48:25;;;;;;;78.80;30.77;;;;;;;2.21;100.00;102819.00;5116348;28;20028;-65
2022/01/15 10:50:57;;;;;;;85.90;30.63;;;;;;;2.16;100.00;102810.13;5116348;28;20027;-66
2022/01/15 10:53:36;;;;;;;82.78;30.40;;;;;;;2.21;100.00;102824.16;5114463;28;20047;-66
2022/01/15 10:56:01;;;;;;;77.03;29.48;;;;;;;2.20;100.00;102812.06;5095829;28;20028;-66
2022/01/15 10:58:27;;;;;;;63.53;25.55;;;;;;;2.23;100.00;102813.91;5095807;28;20035;-65
2022/01/15 11:00:53;;;;;;;81.60;27.42;;;;;;;2.15;100.00;102792.84;5096165;28;20032;-66
2022/01/15 11:03:20;;;;;;;81.45;25.83;;;;;;;2.08;100.00;102801.06;5095783;28;20405;-65
2022/01/15 11:05:47;;;;;;;82.38;26.83;;;;;;;2.06;100.00;102803.59;5095844;28;20111;-65
2022/01/15 11:08:25;;;;;;;81.22;27.02;;;;;;;2.05;100.00;102798.34;5095668;28;20035;-66
2022/01/15 11:10:53;;;;;;;90.75;28.95;;;;;;;2.03;100.00;102793.09;5095254;28;20028;-66
2022/01/15 11:13:29;;;;;;;77.93;28.35;;;;;;;2.04;100.00;102789.72;5097779;28;20556;-66
2022/01/15 11:15:59;;;;;;;74.13;28.23;;;;;;;2.10;100.00;102790.00;5095149;28;20028;-65
2022/01/15 11:18:27;;;;;;;85.10;29.48;;;;;;;2.05;100.00;102776.00;5094748;28;20023;-67
2022/01/15 11:20:56;;;;;;;72.35;26.13;;;;;;;2.07;100.00;102783.81;5094909;28;20063;-65
2022/01/15 11:23:25;;;;;;;77.05;26.42;;;;;;;2.07;100.00;102784.72;5095274;28;20106;-65
2022/01/15 11:25:52;;;;;;;72.07;27.30;;;;;;;2.05;100.00;102781.16;5094594;28;20425;-65
2022/01/15 11:28:25;;;;;;;75.00;28.23;;;;;;;2.12;100.00;102776.28;5094841;28;20036;-68